createdAt,value
2023-04-19T00:02:22.987Z,53.69
2023-04-19T00:04:49.795Z,54.01
2023-04-19T00:07:18.510Z,54.46
2023-04-19T00:09:45.343Z,55.32
2023-04-19T00:12:12.204Z,55.48
2023-04-19T00:14:38.674Z,55.83
2023-04-19T00:17:05.234Z,55.75
2023-04-19T00:19:32.135Z,56.33
2023-04-19T00:21:58.910Z,56.62
2023-04-19T00:24:25.946Z,57.05
2023-04-19T00:26:52.537Z,57.59
2023-04-19T00:29:19.012Z,57.82
2023-04-19T00:31:45.558Z,58.29
2023-04-19T00:34:12.067Z,58.40
2023-04-19T00:36:38.708Z,58.98
2023-04-19T00:39:06.628Z,59.25
2023-04-19T00:41:33.141Z,60.15
2023-04-19T00:43:59.921Z,60.49
2023-04-19T00:46:27.492Z,60.23
2023-04-19T00:48:55.186Z,60.77
2023-04-19T00:51:21.919Z,60.80
2023-04-19T00:53:49.018Z,61.70
2023-04-19T00:56:24.188Z,61.56
2023-04-19T00:58:53.889Z,62.22
2023-04-19T01:01:20.411Z,61.93
2023-04-19T01:03:48.862Z,62.81
2023-04-19T01:06:15.881Z,63.19
2023-04-19T01:08:42.466Z,63.23
2023-04-19T01:11:09.267Z,63.46
2023-04-19T01:13:36.846Z,64.28
2023-04-19T01:16:03.630Z,63.89
2023-04-19T01:18:35.653Z,64.49
2023-04-19T01:21:02.215Z,64.35
2023-04-19T01:23:28.752Z,64.45
2023-04-19T01:25:56.119Z,64.78
2023-04-19T01:28:22.909Z,65.30
2023-04-19T01:30:51.199Z,65.64
2023-04-19T01:33:19.528Z,66.05
2023-04-19T01:35:47.275Z,66.06
2023-04-19T01:38:14.878Z,66.60
2023-04-19T01:40:41.345Z,66.86
2023-04-19T01:43:08.551Z,66.95
2023-04-19T01:45:36.310Z,66.88
2023-04-19T01:48:04.696Z,67.92
2023-04-19T01:50:34.073Z,68.31
2023-04-19T01:53:01.210Z,68.18
2023-04-19T01:55:27.877Z,68.38
2023-04-19T01:57:55.982Z,68.28
2023-04-19T02:00:23.054Z,68.70
2023-04-19T02:02:49.941Z,68.84
2023-04-19T02:05:16.883Z,68.89
2023-04-19T02:07:44.838Z,69.43
2023-04-19T02:10:11.634Z,70.08
2023-04-19T02:12:38.540Z,70.20
2023-04-19T02:15:05.575Z,70.60
2023-04-19T02:17:34.585Z,70.98
2023-04-19T02:20:01.155Z,71.85
2023-04-19T02:22:27.918Z,71.63
2023-04-19T02:24:54.401Z,71.22
2023-04-19T02:27:27.238Z,71.40
2023-04-19T02:29:54.700Z,71.99
2023-04-19T02:32:21.374Z,72.34
2023-04-19T02:34:47.892Z,72.60
2023-04-19T02:37:14.526Z,72.65
2023-04-19T02:39:42.684Z,73.02
2023-04-19T02:42:09.269Z,74.41
2023-04-19T02:44:35.846Z,74.22
2023-04-19T02:47:02.297Z,75.04
2023-04-19T02:49:34.767Z,74.32
2023-04-19T02:52:01.757Z,74.32
2023-04-19T02:54:28.763Z,75.44
2023-04-19T02:56:57.680Z,75.95
2023-04-19T02:59:24.265Z,75.75
2023-04-19T03:01:51.061Z,75.81
2023-04-19T03:04:18.244Z,76.11
2023-04-19T03:06:45.448Z,76.35
2023-04-19T03:09:12.545Z,76.31
2023-04-19T03:11:39.518Z,76.67
2023-04-19T03:14:06.180Z,76.50
2023-04-19T03:16:33.668Z,77.63
2023-04-19T03:19:00.376Z,77.59
2023-04-19T03:21:30.988Z,77.87
2023-04-19T03:23:57.512Z,77.69
2023-04-19T03:26:25.513Z,77.13
2023-04-19T03:28:54.070Z,77.15
2023-04-19T03:31:50.420Z,77.46
2023-04-19T03:34:18.175Z,77.93
2023-04-19T03:36:47.126Z,77.92
2023-04-19T03:39:13.993Z,78.15
2023-04-19T03:41:42.762Z,78.23
2023-04-19T03:44:22.887Z,78.32
2023-04-19T03:46:49.380Z,78.39
2023-04-19T03:49:20.516Z,78.00
2023-04-19T03:51:52.190Z,78.38
2023-04-19T03:54:18.787Z,78.22
2023-04-19T03:56:45.292Z,78.69
2023-04-19T03:59:12.524Z,79.30
2023-04-19T04:01:42.285Z,78.95
2023-04-19T04:04:09.692Z,79.66
2023-04-19T04:06:36.967Z,79.60
2023-04-19T04:09:03.976Z,79.41
2023-04-19T04:11:30.962Z,79.38
2023-04-19T04:13:57.773Z,78.97
2023-04-19T04:16:27.948Z,79.71
2023-04-19T04:18:55.908Z,79.50
2023-04-19T04:21:26.985Z,79.58
2023-04-19T04:23:55.408Z,79.49
2023-04-19T04:26:34.369Z,79.76
2023-04-19T04:29:14.285Z,80.05
2023-04-19T04:31:42.023Z,79.97
2023-04-19T04:34:09.943Z,79.93
2023-04-19T04:36:44.019Z,80.10
2023-04-19T04:39:12.400Z,80.15
2023-04-19T04:41:42.133Z,80.10
2023-04-19T04:44:12.493Z,79.63
2023-04-19T04:46:50.419Z,79.57
2023-04-19T04:49:23.106Z,79.52
2023-04-19T04:51:49.852Z,79.45
2023-04-19T04:54:17.404Z,79.84
2023-04-19T04:56:45.781Z,79.62
2023-04-19T04:59:13.002Z,79.01
2023-04-19T05:01:43.323Z,79.06
2023-04-19T05:04:10.428Z,78.67
2023-04-19T05:06:37.056Z,79.41
2023-04-19T05:09:03.665Z,78.75
2023-04-19T05:11:33.663Z,78.20
2023-04-19T05:14:00.915Z,78.37
2023-04-19T05:16:27.993Z,78.19
2023-04-19T05:18:55.578Z,78.14
2023-04-19T05:21:23.390Z,78.11
2023-04-19T05:23:53.518Z,78.13
2023-04-19T05:26:20.711Z,77.15
2023-04-19T05:28:49.234Z,77.77
2023-04-19T05:31:22.339Z,77.39
2023-04-19T05:34:06.518Z,77.35
2023-04-19T05:36:33.182Z,76.92
2023-04-19T05:38:59.705Z,76.93
2023-04-19T05:41:26.289Z,77.26
2023-04-19T05:43:53.227Z,77.17
2023-04-19T05:46:20.426Z,76.63
2023-04-19T05:48:47.327Z,75.71
2023-04-19T05:51:39.742Z,75.28
2023-04-19T05:54:12.652Z,75.94
2023-04-19T05:56:40.670Z,75.88
2023-04-19T05:59:08.289Z,81.31
2023-04-19T06:01:35.693Z,77.51
2023-04-19T06:04:02.772Z,77.45
2023-04-19T06:06:29.500Z,73.37
2023-04-19T06:08:56.183Z,71.98
2023-04-19T06:11:31.329Z,67.56
2023-04-19T06:14:02.170Z,68.52
2023-04-19T06:16:28.858Z,67.83
2023-04-19T06:18:55.381Z,68.20
2023-04-19T06:21:21.876Z,67.24
2023-04-19T06:23:48.462Z,67.98
2023-04-19T06:26:15.020Z,67.75
2023-04-19T06:28:41.524Z,67.72
2023-04-19T06:31:08.154Z,67.73
2023-04-19T06:33:34.731Z,68.37
2023-04-19T06:36:01.402Z,68.25
2023-04-19T06:38:27.916Z,68.10
2023-04-19T06:40:54.388Z,67.69
2023-04-19T06:43:21.437Z,67.94
2023-04-19T06:45:48.320Z,67.96
2023-04-19T06:48:17.321Z,68.41
2023-04-19T06:50:44.956Z,67.30
2023-04-19T06:53:11.507Z,66.99
2023-04-19T06:55:38.075Z,66.99
2023-04-19T06:58:04.739Z,67.14
2023-04-19T07:00:31.591Z,66.56
2023-04-19T07:02:59.911Z,65.93
2023-04-19T07:05:26.931Z,65.98
2023-04-19T07:07:53.493Z,66.09
2023-04-19T07:10:20.197Z,66.03
2023-04-19T07:12:46.712Z,65.80
2023-04-19T07:15:13.478Z,65.10
2023-04-19T07:17:40.444Z,65.31
2023-04-19T07:20:07.759Z,65.21
2023-04-19T07:22:34.277Z,64.12
2023-04-19T07:25:01.070Z,64.76
2023-04-19T07:27:27.604Z,63.85
2023-04-19T07:29:54.289Z,63.68
2023-04-19T07:32:22.194Z,63.94
2023-04-19T07:34:48.861Z,63.73
2023-04-19T07:37:15.287Z,62.18
2023-04-19T07:39:41.989Z,60.17
2023-04-19T07:42:08.492Z,61.01
2023-04-19T07:44:35.058Z,59.80
2023-04-19T07:47:01.603Z,59.12
2023-04-19T07:49:29.324Z,59.55
2023-04-19T07:51:56.321Z,58.45
2023-04-19T07:54:22.943Z,58.02
2023-04-19T07:56:49.427Z,57.56
2023-04-19T07:59:15.896Z,57.65
2023-04-19T08:01:43.141Z,56.35
2023-04-19T08:04:10.326Z,55.87
2023-04-19T08:06:39.207Z,54.83
2023-04-19T08:09:05.765Z,55.34
2023-04-19T08:11:32.308Z,54.58
2023-04-19T08:14:09.429Z,54.27
2023-04-19T08:17:21.295Z,53.93
2023-04-19T08:19:28.176Z,52.79
2023-04-19T08:21:55.409Z,53.87
2023-04-19T08:24:21.976Z,51.64
2023-04-19T08:26:54.054Z,49.95
2023-04-19T08:29:22.235Z,50.67
2023-04-19T08:31:49.391Z,50.40
2023-04-19T08:34:16.217Z,50.23
2023-04-19T08:36:51.921Z,49.58
2023-04-19T08:39:33.007Z,49.36
2023-04-19T08:42:18.058Z,48.31
2023-04-19T08:45:17.028Z,49.21
2023-04-19T08:47:58.897Z,48.67
2023-04-19T08:50:35.347Z,50.07
2023-04-19T08:53:21.063Z,49.54
2023-04-19T08:56:08.844Z,46.86
2023-04-19T08:58:54.901Z,46.25
2023-04-19T09:06:24.619Z,45.48
2023-04-19T09:08:57.797Z,44.63
2023-04-19T09:11:37.705Z,45.52
2023-04-19T09:14:15.465Z,45.77
2023-04-19T09:16:42.731Z,43.83
2023-04-19T09:19:22.256Z,43.97
2023-04-19T09:21:51.924Z,45.37
2023-04-19T09:24:18.634Z,45.33
2023-04-19T09:26:55.376Z,44.27
2023-04-19T09:29:24.621Z,45.04
2023-04-19T09:31:59.274Z,45.41
2023-04-19T09:34:26.006Z,46.57
2023-04-19T09:37:04.126Z,45.46
2023-04-19T09:39:36.710Z,45.53
2023-04-19T09:42:07.281Z,46.02
2023-04-19T09:47:25.904Z,46.25
2023-04-19T09:50:21.794Z,44.97
2023-04-19T09:52:52.208Z,46.05
2023-04-19T09:57:49.795Z,46.26
2023-04-19T10:00:16.858Z,47.07
2023-04-19T10:02:45.243Z,44.98
2023-04-19T10:05:20.436Z,46.08
2023-04-19T10:07:49.432Z,42.45
2023-04-19T10:10:20.953Z,44.54
2023-04-19T10:13:11.593Z,41.11
2023-04-19T10:18:09.724Z,40.04
2023-04-19T10:20:49.771Z,39.80
2023-04-19T10:23:17.426Z,40.24
2023-04-19T10:25:48.374Z,40.54
2023-04-19T10:28:17.893Z,39.24
2023-04-19T10:31:04.562Z,36.92
2023-04-19T10:33:36.034Z,37.23
2023-04-19T10:36:03.107Z,36.92
2023-04-19T10:38:45.724Z,37.14
2023-04-19T10:41:15.447Z,36.69
2023-04-19T10:43:56.656Z,36.05
2023-04-19T10:46:24.514Z,37.24
2023-04-19T10:48:55.294Z,36.23
2023-04-19T10:51:27.834Z,35.74
2023-04-19T10:53:57.462Z,35.06
2023-04-19T10:56:32.738Z,36.79
2023-04-19T10:59:02.630Z,36.05
2023-04-19T11:01:41.078Z,35.38
2023-04-19T11:04:12.492Z,36.47
2023-04-19T11:06:53.946Z,36.49
2023-04-19T11:09:42.409Z,35.26
2023-04-19T11:12:14.609Z,34.15
2023-04-19T11:14:52.607Z,35.00
2023-04-19T11:17:26.945Z,34.92
2023-04-19T11:19:56.888Z,35.28
2023-04-19T11:22:33.358Z,36.57
2023-04-19T11:25:14.646Z,36.58
2023-04-19T11:27:44.149Z,36.08
2023-04-19T11:30:16.614Z,36.54
2023-04-19T11:32:48.200Z,35.34
2023-04-19T11:35:16.070Z,35.26
2023-04-19T11:37:43.160Z,35.76
2023-04-19T11:40:14.464Z,35.42
2023-04-19T11:42:43.110Z,36.39
2023-04-19T11:45:18.549Z,36.52
2023-04-19T11:47:49.564Z,35.96
2023-04-19T11:50:41.848Z,35.29
2023-04-19T11:53:18.352Z,36.11
2023-04-19T11:55:57.594Z,35.79
2023-04-19T11:58:49.865Z,36.20
2023-04-19T12:01:20.795Z,36.66
2023-04-19T12:03:49.387Z,34.20
2023-04-19T12:06:27.704Z,34.75
2023-04-19T12:08:55.910Z,35.18
2023-04-19T12:11:26.381Z,34.99
2023-04-19T12:14:28.453Z,35.80
2023-04-19T12:17:06.258Z,37.50
2023-04-19T12:19:37.647Z,36.31
2023-04-19T12:22:15.914Z,36.89
2023-04-19T12:24:43.588Z,35.23
2023-04-19T12:27:11.259Z,35.51
2023-04-19T12:29:39.146Z,35.09
2023-04-19T12:32:06.333Z,36.44
2023-04-19T12:34:33.015Z,36.45
2023-04-19T12:36:59.579Z,34.89
2023-04-19T12:39:26.274Z,34.97
2023-04-19T12:41:52.834Z,35.42
2023-04-19T12:44:20.178Z,34.55
2023-04-19T12:46:46.644Z,34.44
2023-04-19T12:49:13.236Z,33.95
2023-04-19T12:51:42.247Z,33.87
2023-04-19T12:54:08.962Z,33.87
2023-04-19T12:56:35.910Z,34.33
2023-04-19T12:59:02.507Z,34.68
2023-04-19T13:01:29.086Z,34.11
2023-04-19T13:03:58.745Z,34.92
2023-04-19T13:06:26.654Z,35.43
2023-04-19T13:08:55.037Z,35.79
2023-04-19T13:11:23.535Z,34.31
2023-04-19T13:13:51.811Z,34.94
2023-04-19T13:16:19.348Z,36.19
2023-04-19T13:18:46.211Z,35.81
2023-04-19T13:21:12.836Z,35.01
2023-04-19T13:23:40.483Z,34.88
2023-04-19T13:26:07.394Z,35.89
2023-04-19T13:28:35.920Z,36.33
2023-04-19T13:31:04.376Z,35.47
2023-04-19T13:33:30.939Z,36.10
2023-04-19T13:35:57.481Z,35.60
2023-04-19T13:38:25.120Z,35.63
2023-04-19T13:40:51.707Z,36.71
2023-04-19T13:43:18.192Z,35.61
2023-04-19T13:45:44.700Z,35.79
2023-04-19T13:48:11.397Z,36.26
2023-04-19T13:50:38.037Z,36.50
2023-04-19T13:53:04.595Z,36.86
2023-04-19T13:55:31.161Z,36.45
2023-04-19T13:57:57.677Z,36.74
2023-04-19T14:00:24.234Z,36.96
2023-04-19T14:02:52.421Z,36.40
2023-04-19T14:05:19.393Z,35.57
2023-04-19T14:07:48.243Z,35.63
2023-04-19T14:10:14.754Z,35.36
2023-04-19T14:12:41.375Z,35.14
2023-04-19T14:15:08.462Z,35.64
2023-04-19T14:17:35.993Z,36.43
2023-04-19T14:20:03.906Z,37.01
2023-04-19T14:22:32.666Z,36.57
2023-04-19T14:24:59.147Z,35.52
2023-04-19T14:27:26.340Z,36.14
2023-04-19T14:29:52.817Z,34.88
2023-04-19T14:32:24.997Z,35.67
2023-04-19T14:34:55.873Z,35.84
2023-04-19T14:37:23.571Z,36.22
2023-04-19T14:39:50.563Z,35.63
2023-04-19T14:42:17.047Z,35.37
2023-04-19T14:44:43.978Z,35.58
2023-04-19T14:47:10.975Z,35.47
2023-04-19T14:49:37.429Z,35.61
2023-04-19T14:52:04.504Z,35.40
2023-04-19T14:54:31.336Z,36.25
2023-04-19T14:56:57.845Z,36.46
2023-04-19T14:59:24.369Z,36.33
2023-04-19T15:01:50.872Z,36.51
2023-04-19T15:07:29.355Z,35.99
2023-04-19T15:09:55.907Z,35.13
2023-04-19T15:12:22.458Z,34.03
2023-04-19T15:14:49.057Z,34.91
2023-04-19T15:17:16.696Z,35.14
2023-04-19T15:19:44.260Z,34.53
2023-04-19T15:22:11.273Z,33.08
2023-04-19T15:24:38.179Z,33.18
2023-04-19T15:27:05.059Z,34.04
2023-04-19T15:29:32.113Z,34.60
2023-04-19T15:31:59.097Z,34.04
2023-04-19T15:34:25.601Z,33.74
2023-04-19T15:37:46.720Z,33.80
2023-04-19T15:39:59.172Z,33.32
2023-04-19T15:42:26.032Z,33.00
2023-04-19T15:44:52.544Z,33.01
2023-04-19T15:47:19.473Z,30.18
2023-04-19T15:49:47.493Z,28.59
2023-04-19T15:52:14.061Z,27.65
2023-04-19T15:54:40.756Z,26.11
2023-04-19T15:57:07.807Z,26.36
2023-04-19T15:59:34.300Z,25.14
2023-04-19T16:02:01.361Z,23.97
2023-04-19T16:04:28.523Z,24.49
2023-04-19T16:06:55.500Z,23.68
2023-04-19T16:09:22.739Z,24.58
2023-04-19T16:11:51.941Z,23.19
2023-04-19T16:14:18.542Z,21.75
2023-04-19T16:16:45.187Z,21.50
2023-04-19T16:19:11.946Z,20.55
2023-04-19T16:21:38.623Z,19.87
2023-04-19T16:24:05.512Z,19.78
2023-04-19T16:26:33.932Z,20.95
2023-04-19T16:29:00.975Z,22.14
2023-04-19T16:31:27.737Z,22.23
2023-04-19T16:33:54.303Z,23.47
2023-04-19T16:36:20.812Z,22.53
2023-04-19T16:38:47.422Z,22.34
2023-04-19T16:41:14.174Z,22.14
2023-04-19T16:43:40.885Z,22.81
2023-04-19T16:46:07.474Z,23.92
2023-04-19T16:48:34.094Z,24.36
2023-04-19T16:51:00.507Z,23.72
2023-04-19T16:53:27.149Z,24.64
2023-04-19T16:55:55.074Z,25.39
2023-04-19T16:58:22.961Z,26.61
2023-04-19T17:00:49.697Z,27.67
2023-04-19T17:03:16.939Z,28.00
2023-04-19T17:05:43.836Z,28.95
2023-04-19T17:08:11.996Z,29.27
2023-04-19T17:10:38.709Z,29.84
2023-04-19T17:13:05.212Z,30.55
2023-04-19T17:15:31.900Z,31.19
2023-04-19T17:17:58.429Z,30.83
2023-04-19T17:20:25.167Z,30.62
2023-04-19T17:22:52.202Z,31.05
2023-04-19T17:25:19.962Z,30.45
2023-04-19T17:27:48.342Z,30.84
2023-04-19T17:30:16.105Z,31.53
2023-04-19T17:32:42.984Z,31.93
2023-04-19T17:35:09.815Z,32.38
2023-04-19T17:37:36.346Z,31.73
2023-04-19T17:40:03.016Z,32.30
2023-04-19T17:42:29.900Z,32.79
2023-04-19T17:44:56.499Z,32.91
2023-04-19T17:47:23.216Z,33.09
2023-04-19T17:49:50.263Z,33.41
2023-04-19T17:52:16.750Z,33.71
2023-04-19T17:54:44.152Z,33.84
2023-04-19T17:57:10.734Z,34.58
2023-04-19T17:59:37.282Z,34.90
2023-04-19T18:02:03.863Z,35.05
2023-04-19T18:04:31.291Z,35.75
2023-04-19T18:06:58.241Z,35.80
2023-04-19T18:09:24.901Z,36.16
2023-04-19T18:11:51.434Z,36.38
2023-04-19T18:14:18.220Z,36.67
2023-04-19T18:16:45.320Z,37.17
2023-04-19T18:19:12.184Z,37.51
2023-04-19T18:21:38.944Z,37.97
2023-04-19T18:24:06.318Z,38.59
2023-04-19T18:26:41.323Z,39.06
2023-04-19T18:29:08.790Z,39.89
2023-04-19T18:31:35.675Z,40.43
2023-04-19T18:34:02.618Z,42.31
2023-04-19T18:36:29.203Z,42.73
2023-04-19T18:38:56.237Z,42.88
2023-04-19T18:41:23.317Z,42.91
2023-04-19T18:44:13.150Z,43.71
2023-04-19T18:46:36.374Z,44.00
2023-04-19T18:49:03.139Z,44.70
2023-04-19T18:51:29.684Z,46.82
2023-04-19T18:53:56.441Z,48.50
2023-04-19T18:56:36.248Z,49.84
2023-04-19T18:59:10.027Z,50.36
2023-04-19T19:01:36.739Z,51.74
2023-04-19T19:06:33.454Z,54.52
2023-04-19T19:09:00.633Z,54.80
2023-04-19T19:11:51.742Z,59.81
2023-04-19T19:14:13.670Z,61.65
2023-04-19T19:16:51.007Z,62.44
2023-04-19T19:19:20.734Z,68.32
2023-04-19T19:21:47.394Z,71.65
2023-04-19T19:24:13.899Z,75.28
2023-04-19T19:26:40.575Z,78.13
2023-04-19T19:29:09.259Z,80.22
2023-04-19T19:31:36.746Z,79.53
2023-04-19T19:34:14.733Z,80.19
2023-04-19T19:36:49.162Z,79.51
2023-04-19T19:39:16.499Z,79.47
2023-04-19T19:44:13.059Z,78.91
2023-04-19T19:46:40.020Z,78.72
2023-04-19T19:49:11.506Z,79.63
2023-04-19T19:51:56.938Z,80.16
2023-04-19T19:54:24.999Z,81.58
2023-04-19T19:59:29.225Z,86.14
2023-04-19T20:01:56.943Z,88.79
2023-04-19T20:04:23.640Z,90.49
2023-04-19T20:09:21.132Z,89.80
2023-04-19T20:11:48.044Z,91.31
2023-04-19T20:14:14.689Z,90.58
2023-04-19T20:16:41.299Z,90.91
2023-04-19T20:19:10.225Z,91.81
2023-04-19T20:21:37.945Z,91.11
2023-04-19T20:24:05.873Z,90.06
2023-04-19T20:26:32.891Z,88.72
2023-04-19T20:29:01.006Z,88.89
2023-04-19T20:31:27.881Z,88.33
2023-04-19T20:33:54.780Z,86.91
2023-04-19T20:36:24.911Z,87.64
2023-04-19T20:38:51.761Z,86.10
2023-04-19T20:41:19.006Z,86.25
2023-04-19T20:43:45.732Z,85.20
2023-04-19T20:46:12.683Z,84.48
2023-04-19T20:48:39.397Z,82.98
2023-04-19T20:51:06.321Z,82.38
2023-04-19T20:53:34.389Z,82.04
2023-04-19T20:56:02.830Z,80.84
2023-04-19T20:58:32.221Z,80.32
2023-04-19T21:00:59.586Z,79.47
2023-04-19T21:03:26.371Z,77.91
2023-04-19T21:05:53.302Z,76.90
2023-04-19T21:08:20.292Z,76.16
2023-04-19T21:10:46.839Z,74.92
2023-04-19T21:13:13.344Z,72.61
2023-04-19T21:15:40.213Z,72.46
2023-04-19T21:18:07.148Z,72.58
2023-04-19T21:20:34.356Z,72.60
2023-04-19T21:23:02.512Z,71.31
2023-04-19T21:25:29.314Z,72.01
2023-04-19T21:27:56.114Z,71.83
2023-04-19T21:30:23.658Z,72.74
2023-04-19T21:32:50.372Z,72.65
2023-04-19T21:35:17.182Z,73.22
2023-04-19T21:37:43.645Z,73.19
2023-04-19T21:40:10.531Z,73.48
2023-04-19T21:42:37.181Z,73.46
2023-04-19T21:45:04.129Z,74.24
2023-04-19T21:47:31.845Z,74.72
2023-04-19T21:49:58.636Z,75.03
2023-04-19T21:52:25.407Z,75.15
2023-04-19T21:54:51.962Z,76.10
2023-04-19T21:57:22.242Z,77.43
2023-04-19T21:59:48.770Z,77.56
2023-04-19T22:02:15.616Z,77.79
2023-04-19T22:04:42.319Z,78.13
2023-04-19T22:07:09.968Z,78.04
2023-04-19T22:09:36.419Z,78.45
2023-04-19T22:12:03.800Z,77.69
2023-04-19T22:14:31.036Z,78.41
2023-04-19T22:16:59.241Z,78.93
2023-04-19T22:19:25.716Z,79.02
2023-04-19T22:21:53.679Z,79.56
2023-04-19T22:24:22.044Z,79.89
2023-04-19T22:26:50.074Z,80.33
2023-04-19T22:29:17.816Z,81.73
2023-04-19T22:31:44.657Z,83.78
2023-04-19T22:34:13.214Z,86.03
2023-04-19T22:36:40.067Z,87.54
2023-04-19T22:39:06.637Z,89.07
2023-04-19T22:41:34.364Z,91.56
2023-04-19T22:44:01.129Z,92.68
2023-04-19T22:46:28.357Z,94.25
2023-04-19T22:48:56.516Z,95.56
2023-04-19T22:51:24.357Z,96.91
2023-04-19T22:53:50.989Z,97.35
2023-04-19T22:56:17.934Z,98.10
2023-04-19T22:58:44.605Z,98.84
2023-04-19T23:01:11.323Z,99.36
2023-04-19T23:03:37.873Z,99.67
2023-04-19T23:06:05.104Z,99.42
2023-04-19T23:08:33.477Z,100.00
2023-04-19T23:11:00.398Z,99.84
2023-04-19T23:13:29.287Z,100.00
2023-04-19T23:15:55.844Z,100.00
2023-04-19T23:18:22.478Z,100.00
2023-04-19T23:20:49.015Z,100.00
2023-04-19T23:23:15.692Z,100.00
2023-04-19T23:25:42.376Z,100.00
2023-04-19T23:28:11.904Z,100.00
2023-04-19T23:30:39.364Z,100.00
2023-04-19T23:33:06.115Z,100.00
2023-04-19T23:35:32.888Z,100.00
2023-04-19T23:37:59.748Z,100.00
2023-04-19T23:40:26.667Z,100.00
2023-04-19T23:42:53.231Z,100.00
2023-04-19T23:45:19.801Z,100.00
2023-04-19T23:47:46.817Z,100.00
2023-04-19T23:50:13.479Z,100.00
2023-04-19T23:52:40.588Z,100.00
2023-04-19T23:55:07.436Z,100.00
2023-04-19T23:57:35.859Z,100.00
